createdAt,value
2022-10-02T00:00:18.681Z,11.45
2022-10-02T00:01:18.690Z,11.35
2022-10-02T00:02:18.607Z,11.32
2022-10-02T00:03:18.595Z,11.30
2022-10-02T00:04:18.693Z,11.22
2022-10-02T00:05:18.512Z,11.29
2022-10-02T00:06:18.484Z,11.25
2022-10-02T00:07:18.459Z,11.14
2022-10-02T00:08:23.329Z,11.14
2022-10-02T00:09:19.547Z,11.15
2022-10-02T00:10:18.379Z,11.10
2022-10-02T00:11:19.282Z,11.02
2022-10-02T00:12:19.238Z,11.04
2022-10-02T00:13:18.250Z,11.04
2022-10-02T00:14:23.990Z,10.97
2022-10-02T00:15:18.214Z,10.94
2022-10-02T00:16:18.171Z,11.04
2022-10-02T00:17:18.117Z,10.89
2022-10-02T00:18:18.077Z,10.92
2022-10-02T00:19:18.105Z,10.84
2022-10-02T00:20:18.016Z,10.84
2022-10-02T00:21:17.977Z,10.84
2022-10-02T00:22:17.942Z,10.94
2022-10-02T00:23:17.909Z,10.90
2022-10-02T00:24:17.876Z,10.81
2022-10-02T00:25:17.932Z,10.87
2022-10-02T00:26:17.818Z,10.84
2022-10-02T00:27:17.778Z,10.93
2022-10-02T00:28:17.896Z,10.84
2022-10-02T00:29:17.706Z,10.89
2022-10-02T00:30:17.897Z,10.90
2022-10-02T00:31:20.907Z,10.81
2022-10-02T00:32:17.613Z,10.76
2022-10-02T00:33:17.629Z,10.76
2022-10-02T00:34:17.540Z,10.69
2022-10-02T00:35:17.510Z,10.69
2022-10-02T00:36:17.478Z,10.71
2022-10-02T00:37:20.499Z,10.71
2022-10-02T00:38:17.413Z,10.68
2022-10-02T00:39:17.435Z,10.69
2022-10-02T00:40:17.405Z,10.63
2022-10-02T00:41:17.309Z,10.71
2022-10-02T00:42:17.300Z,10.69
2022-10-02T00:43:17.270Z,10.78
2022-10-02T00:44:17.231Z,10.75
2022-10-02T00:45:17.256Z,10.72
2022-10-02T00:46:17.200Z,10.75
2022-10-02T00:47:17.114Z,10.71
2022-10-02T00:48:17.097Z,10.74
2022-10-02T00:49:17.056Z,10.72
2022-10-02T00:50:17.079Z,10.74
2022-10-02T00:51:17.037Z,10.78
2022-10-02T00:52:16.943Z,10.79
2022-10-02T00:53:16.915Z,10.71
2022-10-02T00:54:16.881Z,10.74
2022-10-02T00:55:16.863Z,10.76
2022-10-02T00:56:16.810Z,10.76
2022-10-02T00:57:16.839Z,10.76
2022-10-02T00:58:16.739Z,10.78
2022-10-02T00:59:16.736Z,10.69
2022-10-02T01:00:16.673Z,10.72
2022-10-02T01:01:16.704Z,10.69
2022-10-02T01:02:16.702Z,10.68
2022-10-02T01:03:16.575Z,10.60
2022-10-02T01:04:16.535Z,10.61
2022-10-02T01:05:16.568Z,10.71
2022-10-02T01:06:16.473Z,10.61
2022-10-02T01:07:16.439Z,10.59
2022-10-02T01:08:16.469Z,10.64
2022-10-02T01:09:16.376Z,10.64
2022-10-02T01:10:16.333Z,10.59
2022-10-02T01:11:16.303Z,10.59
2022-10-02T01:12:16.273Z,10.49
2022-10-02T01:13:16.240Z,10.49
2022-10-02T01:14:16.257Z,10.46
2022-10-02T01:15:16.169Z,10.48
2022-10-02T01:16:16.251Z,10.44
2022-10-02T01:17:16.102Z,10.48
2022-10-02T01:18:16.072Z,10.53
2022-10-02T01:19:16.035Z,10.48
2022-10-02T01:20:16.000Z,10.38
2022-10-02T01:21:15.969Z,10.41
2022-10-02T01:22:16.002Z,10.35
2022-10-02T01:23:15.918Z,10.34
2022-10-02T01:24:15.871Z,10.28
2022-10-02T01:25:15.839Z,10.42
2022-10-02T01:26:15.810Z,10.46
2022-10-02T01:27:15.829Z,10.41
2022-10-02T01:28:15.838Z,10.30
2022-10-02T01:29:15.712Z,10.49
2022-10-02T01:30:15.666Z,10.25
2022-10-02T01:31:15.685Z,10.28
2022-10-02T01:32:15.592Z,10.30
2022-10-02T01:33:16.570Z,10.31
2022-10-02T01:34:15.528Z,10.25
2022-10-02T01:35:15.494Z,10.30
2022-10-02T01:36:15.460Z,10.23
2022-10-02T01:37:15.427Z,10.28
2022-10-02T01:38:15.398Z,10.25
2022-10-02T01:39:15.413Z,10.31
2022-10-02T01:40:15.324Z,10.38
2022-10-02T01:41:15.296Z,10.30
2022-10-02T01:42:15.319Z,10.25
2022-10-02T01:43:15.234Z,10.23
2022-10-02T01:44:15.195Z,10.34
2022-10-02T01:45:15.157Z,10.22
2022-10-02T01:46:16.175Z,10.31
2022-10-02T01:47:15.148Z,10.25
2022-10-02T01:48:15.063Z,10.31
2022-10-02T01:49:15.023Z,10.30
2022-10-02T01:50:14.988Z,10.28
2022-10-02T01:51:14.957Z,10.22
2022-10-02T01:52:14.974Z,10.19
2022-10-02T01:53:14.894Z,10.16
2022-10-02T01:54:14.857Z,10.20
2022-10-02T01:55:14.825Z,10.19
2022-10-02T01:56:14.789Z,10.12
2022-10-02T01:57:14.820Z,10.12
2022-10-02T01:58:14.719Z,10.16
2022-10-02T01:59:14.689Z,10.15
2022-10-02T02:00:14.658Z,10.20
2022-10-02T02:01:14.673Z,10.23
2022-10-02T02:02:14.672Z,10.28
2022-10-02T02:03:14.614Z,10.30
2022-10-02T02:04:14.519Z,10.23
2022-10-02T02:05:14.484Z,10.23
2022-10-02T02:06:14.471Z,10.28
2022-10-02T02:07:14.446Z,10.26
2022-10-02T02:08:22.118Z,10.26
2022-10-02T02:09:14.349Z,10.25
2022-10-02T02:10:14.321Z,10.30
2022-10-02T02:11:14.287Z,10.25
2022-10-02T02:12:14.252Z,10.31
2022-10-02T02:13:14.283Z,10.26
2022-10-02T02:14:14.187Z,10.25
2022-10-02T02:15:14.151Z,10.30
2022-10-02T02:16:14.144Z,10.31
2022-10-02T02:17:14.084Z,10.30
2022-10-02T02:18:14.109Z,10.26
2022-10-02T02:19:14.015Z,10.31
2022-10-02T02:20:13.983Z,10.37
2022-10-02T02:21:13.989Z,10.35
2022-10-02T02:22:13.988Z,10.44
2022-10-02T02:23:13.888Z,10.31
2022-10-02T02:24:13.926Z,10.44
2022-10-02T02:25:13.814Z,10.48
2022-10-02T02:26:13.777Z,10.49
2022-10-02T02:27:13.748Z,10.44
2022-10-02T02:28:13.753Z,10.49
2022-10-02T02:29:13.683Z,10.51
2022-10-02T02:30:13.708Z,10.46
2022-10-02T02:31:13.670Z,10.49
2022-10-02T02:32:13.586Z,10.57
2022-10-02T02:33:13.552Z,10.59
2022-10-02T02:34:13.569Z,10.59
2022-10-02T02:35:13.474Z,10.56
2022-10-02T02:36:13.443Z,10.59
2022-10-02T02:37:13.408Z,10.54
2022-10-02T02:38:13.374Z,10.57
2022-10-02T02:39:13.397Z,10.61
2022-10-02T02:40:13.313Z,10.64
2022-10-02T02:41:13.272Z,10.63
2022-10-02T02:42:17.566Z,10.64
2022-10-02T02:43:13.218Z,10.59
2022-10-02T02:44:13.232Z,10.61
2022-10-02T02:45:13.145Z,10.48
2022-10-02T02:46:13.141Z,10.49
2022-10-02T02:47:13.081Z,10.48
2022-10-02T02:48:13.041Z,10.63
2022-10-02T02:49:13.060Z,10.61
2022-10-02T02:50:12.974Z,10.60
2022-10-02T02:51:12.964Z,10.57
2022-10-02T02:52:12.908Z,10.54
2022-10-02T02:53:12.877Z,10.63
2022-10-02T02:54:12.900Z,10.57
2022-10-02T02:55:12.804Z,10.63
2022-10-02T02:56:12.771Z,10.59
2022-10-02T02:57:12.804Z,10.67
2022-10-02T02:58:12.709Z,10.54
2022-10-02T02:59:12.725Z,10.67
2022-10-02T03:00:12.643Z,10.63
2022-10-02T03:01:12.667Z,10.61
2022-10-02T03:02:12.603Z,10.61
2022-10-02T03:03:12.538Z,10.60
2022-10-02T03:04:12.612Z,10.68
2022-10-02T03:05:12.471Z,10.68
2022-10-02T03:06:12.438Z,10.75
2022-10-02T03:07:12.403Z,10.74
2022-10-02T03:08:12.368Z,10.76
2022-10-02T03:09:12.362Z,10.79
2022-10-02T03:10:12.360Z,10.81
2022-10-02T03:11:12.281Z,10.74
2022-10-02T03:12:12.289Z,10.78
2022-10-02T03:13:12.200Z,10.79
2022-10-02T03:14:12.170Z,10.75
2022-10-02T03:15:12.200Z,10.81
2022-10-02T03:16:12.166Z,10.78
2022-10-02T03:17:12.069Z,10.76
2022-10-02T03:18:12.038Z,10.79
2022-10-02T03:19:11.998Z,10.81
2022-10-02T03:20:12.019Z,10.74
2022-10-02T03:21:11.932Z,10.75
2022-10-02T03:22:11.909Z,10.71
2022-10-02T03:23:11.868Z,10.72
2022-10-02T03:24:11.834Z,10.69
2022-10-02T03:25:11.862Z,10.82
2022-10-02T03:26:11.778Z,10.86
2022-10-02T03:27:11.728Z,10.82
2022-10-02T03:28:11.802Z,10.79
2022-10-02T03:29:11.758Z,10.74
2022-10-02T03:30:11.641Z,10.76
2022-10-02T03:31:11.680Z,10.78
2022-10-02T03:32:11.571Z,10.86
2022-10-02T03:33:11.536Z,10.87
2022-10-02T03:34:11.555Z,10.90
2022-10-02T03:35:11.468Z,10.87
2022-10-02T03:36:11.432Z,10.94
2022-10-02T03:37:11.402Z,10.90
2022-10-02T03:38:11.419Z,10.96
2022-10-02T03:39:26.625Z,10.94
2022-10-02T03:40:11.361Z,10.96
2022-10-02T03:41:11.266Z,11.05
2022-10-02T03:42:11.232Z,11.10
2022-10-02T03:43:11.202Z,11.12
2022-10-02T03:44:11.184Z,11.10
2022-10-02T03:45:16.577Z,11.12
2022-10-02T03:46:11.273Z,11.10
2022-10-02T03:47:11.061Z,11.02
2022-10-02T03:48:11.029Z,11.02
2022-10-02T03:49:10.999Z,11.04
2022-10-02T03:50:10.967Z,11.04
2022-10-02T03:51:10.924Z,10.97
2022-10-02T03:52:10.965Z,10.96
2022-10-02T03:53:10.868Z,10.92
2022-10-02T03:54:10.836Z,10.97
2022-10-02T03:55:10.797Z,10.92
2022-10-02T03:56:10.768Z,10.92
2022-10-02T03:57:10.731Z,10.94
2022-10-02T03:58:10.745Z,10.92
2022-10-02T03:59:10.660Z,10.99
2022-10-02T04:00:10.692Z,10.92
2022-10-02T04:01:10.655Z,10.92
2022-10-02T04:02:10.638Z,11.07
2022-10-02T04:03:10.552Z,11.04
2022-10-02T04:04:10.501Z,11.02
2022-10-02T04:05:10.467Z,11.04
2022-10-02T04:06:10.498Z,11.02
2022-10-02T04:07:10.416Z,11.14
2022-10-02T04:08:10.481Z,11.15
2022-10-02T04:09:10.363Z,11.17
2022-10-02T04:10:10.307Z,11.26
2022-10-02T04:11:10.335Z,11.23
2022-10-02T04:12:10.230Z,11.25
2022-10-02T04:13:10.212Z,11.27
2022-10-02T04:14:10.166Z,11.25
2022-10-02T04:15:10.135Z,11.25
2022-10-02T04:16:10.182Z,11.25
2022-10-02T04:17:10.113Z,11.29
2022-10-02T04:18:10.065Z,11.37
2022-10-02T04:19:10.016Z,11.41
2022-10-02T04:20:09.965Z,11.43
2022-10-02T04:21:09.939Z,11.43
2022-10-02T04:22:09.955Z,11.50
2022-10-02T04:23:09.872Z,11.47
2022-10-02T04:24:09.889Z,11.50
2022-10-02T04:25:09.799Z,11.57
2022-10-02T04:26:09.766Z,11.45
2022-10-02T04:27:09.729Z,11.44
2022-10-02T04:28:09.765Z,11.47
2022-10-02T04:29:09.681Z,11.55
2022-10-02T04:30:09.687Z,11.57
2022-10-02T04:31:09.631Z,11.65
2022-10-02T04:32:09.585Z,11.60
2022-10-02T04:33:09.541Z,11.63
2022-10-02T04:34:09.552Z,11.66
2022-10-02T04:35:09.471Z,11.66
2022-10-02T04:36:09.440Z,11.75
2022-10-02T04:37:09.463Z,11.72
2022-10-02T04:38:09.373Z,11.70
2022-10-02T04:39:09.347Z,11.75
2022-10-02T04:40:09.304Z,11.70
2022-10-02T04:41:09.270Z,11.75
2022-10-02T04:42:09.300Z,11.83
2022-10-02T04:43:09.205Z,11.75
2022-10-02T04:44:09.172Z,11.80
2022-10-02T04:45:09.147Z,11.77
2022-10-02T04:46:09.221Z,11.75
2022-10-02T04:47:09.076Z,11.75
2022-10-02T04:48:09.111Z,11.83
2022-10-02T04:49:09.005Z,11.84
2022-10-02T04:50:08.972Z,11.75
2022-10-02T04:51:08.948Z,11.75
2022-10-02T04:52:08.910Z,11.81
2022-10-02T04:53:08.871Z,11.86
2022-10-02T04:54:08.899Z,11.84
2022-10-02T04:55:08.807Z,11.86
2022-10-02T04:56:08.831Z,11.84
2022-10-02T04:57:08.752Z,11.90
2022-10-02T04:58:08.715Z,11.88
2022-10-02T04:59:08.729Z,11.84
2022-10-02T05:00:08.661Z,11.87
2022-10-02T05:01:08.668Z,11.90
2022-10-02T05:02:08.637Z,11.90
2022-10-02T05:03:08.547Z,11.86
2022-10-02T05:04:08.521Z,11.91
2022-10-02T05:05:08.572Z,11.81
2022-10-02T05:06:08.527Z,11.90
2022-10-02T05:07:08.416Z,11.80
2022-10-02T05:08:08.380Z,11.90
2022-10-02T05:09:08.353Z,11.75
2022-10-02T05:10:08.323Z,11.75
2022-10-02T05:11:08.353Z,11.86
2022-10-02T05:12:08.248Z,11.86
2022-10-02T05:13:08.218Z,11.84
2022-10-02T05:14:08.267Z,11.84
2022-10-02T05:15:08.157Z,11.84
2022-10-02T05:16:08.164Z,11.81
2022-10-02T05:17:08.089Z,11.88
2022-10-02T05:18:08.059Z,11.90
2022-10-02T05:19:08.017Z,11.97
2022-10-02T05:20:08.045Z,11.95
2022-10-02T05:21:08.027Z,11.99
2022-10-02T05:22:07.926Z,11.99
2022-10-02T05:23:07.894Z,11.94
2022-10-02T05:24:07.859Z,12.00
2022-10-02T05:25:07.826Z,12.10
2022-10-02T05:26:10.784Z,12.12
2022-10-02T05:27:07.815Z,12.18
2022-10-02T05:28:07.840Z,12.18
2022-10-02T05:29:07.761Z,12.31
2022-10-02T05:30:07.656Z,12.29
2022-10-02T05:31:07.678Z,12.31
2022-10-02T05:32:07.618Z,12.29
2022-10-02T05:33:07.566Z,12.24
2022-10-02T05:34:07.589Z,12.36
2022-10-02T05:35:07.497Z,12.36
2022-10-02T05:36:07.466Z,12.36
2022-10-02T05:37:07.431Z,12.35
2022-10-02T05:38:07.400Z,12.31
2022-10-02T05:39:07.406Z,12.39
2022-10-02T05:40:07.408Z,12.39
2022-10-02T05:41:07.302Z,12.40
2022-10-02T05:42:07.322Z,12.46
2022-10-02T05:43:07.239Z,12.42
2022-10-02T05:44:07.201Z,12.42
2022-10-02T05:45:07.176Z,12.45
2022-10-02T05:46:07.205Z,12.46
2022-10-02T05:47:07.120Z,12.42
2022-10-02T05:48:07.073Z,12.39
2022-10-02T05:49:07.073Z,12.46
2022-10-02T05:50:07.014Z,12.47
2022-10-02T05:51:06.977Z,12.45
2022-10-02T05:52:06.997Z,12.35
2022-10-02T05:53:06.909Z,12.29
2022-10-02T05:54:06.882Z,12.32
2022-10-02T05:55:06.842Z,12.35
2022-10-02T05:56:06.819Z,12.39
2022-10-02T05:57:06.830Z,12.42
2022-10-02T05:58:06.766Z,12.39
2022-10-02T05:59:06.714Z,12.46
2022-10-02T06:00:06.704Z,12.46
2022-10-02T06:01:06.686Z,12.36
2022-10-02T06:02:06.732Z,12.32
2022-10-02T06:03:06.607Z,12.39
2022-10-02T06:04:06.551Z,12.36
2022-10-02T06:05:06.517Z,12.43
2022-10-02T06:06:06.504Z,12.35
2022-10-02T06:07:06.563Z,12.39
2022-10-02T06:08:06.424Z,12.35
2022-10-02T06:09:06.384Z,12.35
2022-10-02T06:10:06.352Z,12.29
2022-10-02T06:11:06.327Z,12.35
2022-10-02T06:12:06.368Z,12.32
2022-10-02T06:13:06.353Z,12.31
2022-10-02T06:14:06.221Z,12.29
2022-10-02T06:15:06.193Z,12.27
2022-10-02T06:16:06.203Z,12.32
2022-10-02T06:17:06.213Z,12.31
2022-10-02T06:18:06.089Z,12.40
2022-10-02T06:19:06.061Z,12.50
2022-10-02T06:20:06.038Z,12.49
2022-10-02T06:21:05.998Z,12.47
2022-10-02T06:22:05.966Z,12.57
2022-10-02T06:23:05.985Z,12.60
2022-10-02T06:24:05.908Z,12.54
2022-10-02T06:25:05.868Z,12.79
2022-10-02T06:26:05.844Z,12.73
2022-10-02T06:27:05.804Z,12.82
2022-10-02T06:28:05.904Z,12.82
2022-10-02T06:29:05.743Z,12.86
2022-10-02T06:30:05.707Z,12.91
2022-10-02T06:31:05.709Z,13.03
2022-10-02T06:32:05.648Z,13.01
2022-10-02T06:33:05.618Z,13.08
2022-10-02T06:34:05.651Z,13.09
2022-10-02T06:35:05.547Z,13.20
2022-10-02T06:36:05.510Z,13.23
2022-10-02T06:37:05.517Z,13.25
2022-10-02T06:38:05.471Z,13.27
2022-10-02T06:39:05.420Z,13.20
2022-10-02T06:40:05.451Z,13.20
2022-10-02T06:41:05.358Z,13.23
2022-10-02T06:42:05.326Z,13.13
2022-10-02T06:43:05.293Z,13.28
2022-10-02T06:44:05.269Z,13.20
2022-10-02T06:45:05.300Z,13.25
2022-10-02T06:46:05.253Z,13.27
2022-10-02T06:47:05.164Z,13.18
2022-10-02T06:48:05.128Z,13.19
2022-10-02T06:49:05.096Z,13.15
2022-10-02T06:50:05.131Z,13.05
2022-10-02T06:51:05.038Z,13.03
2022-10-02T06:52:05.002Z,13.01
2022-10-02T06:53:04.974Z,13.03
2022-10-02T06:54:04.944Z,13.01
2022-10-02T06:55:04.910Z,12.97
2022-10-02T06:56:04.971Z,12.97
2022-10-02T06:57:04.857Z,12.87
2022-10-02T06:58:04.809Z,12.91
2022-10-02T06:59:04.783Z,12.82
2022-10-02T07:00:04.798Z,12.78
2022-10-02T07:01:04.781Z,12.78
2022-10-02T07:02:04.719Z,12.82
2022-10-02T07:03:04.655Z,12.87
2022-10-02T07:04:04.612Z,12.85
2022-10-02T07:05:04.648Z,12.87
2022-10-02T07:06:04.612Z,12.85
2022-10-02T07:07:04.522Z,12.86
2022-10-02T07:08:04.490Z,12.91
2022-10-02T07:09:04.461Z,12.91
2022-10-02T07:10:04.424Z,12.93
2022-10-02T07:11:04.458Z,12.94
2022-10-02T07:12:04.364Z,12.94
2022-10-02T07:13:04.327Z,12.97
2022-10-02T07:14:04.297Z,13.03
2022-10-02T07:15:04.324Z,12.98
2022-10-02T07:16:04.307Z,13.01
2022-10-02T07:17:04.283Z,13.08
2022-10-02T07:18:04.174Z,13.11
2022-10-02T07:19:04.138Z,13.18
2022-10-02T07:20:04.168Z,13.20
2022-10-02T07:21:04.072Z,13.31
2022-10-02T07:22:15.295Z,13.22
2022-10-02T07:23:07.488Z,13.38
2022-10-02T07:24:03.975Z,13.31
2022-10-02T07:25:03.953Z,13.42
2022-10-02T07:26:03.913Z,13.42
2022-10-02T07:27:03.887Z,13.53
2022-10-02T07:28:03.932Z,13.59
2022-10-02T07:29:03.815Z,13.62
2022-10-02T07:30:03.827Z,13.72
2022-10-02T07:31:03.750Z,13.70
2022-10-02T07:32:03.796Z,13.78
2022-10-02T07:33:03.683Z,13.89
2022-10-02T07:34:03.706Z,13.95
2022-10-02T07:35:03.619Z,13.90
2022-10-02T07:36:03.593Z,13.92
2022-10-02T07:37:03.560Z,13.95
2022-10-02T07:38:03.523Z,13.97
2022-10-02T07:39:03.500Z,14.00
2022-10-02T07:40:03.528Z,14.04
2022-10-02T07:41:03.436Z,14.08
2022-10-02T07:42:03.439Z,14.10
2022-10-02T07:43:03.426Z,14.15
2022-10-02T07:44:03.344Z,14.28
2022-10-02T07:45:03.304Z,14.32
2022-10-02T07:46:03.377Z,14.29
2022-10-02T07:47:03.243Z,14.37
2022-10-02T07:48:03.269Z,14.35
2022-10-02T07:49:03.182Z,14.44
2022-10-02T07:50:03.146Z,14.50
2022-10-02T07:51:03.114Z,14.77
2022-10-02T07:52:03.079Z,14.86
2022-10-02T07:53:03.052Z,15.04
2022-10-02T07:54:03.087Z,15.15
2022-10-02T07:55:02.985Z,15.21
2022-10-02T07:56:02.962Z,15.17
2022-10-02T07:57:06.347Z,15.14
2022-10-02T07:58:02.900Z,15.14
2022-10-02T07:59:02.924Z,15.15
2022-10-02T08:00:02.832Z,15.15
2022-10-02T08:01:02.861Z,15.24
2022-10-02T08:02:02.802Z,15.31
2022-10-02T08:03:02.799Z,15.31
2022-10-02T08:04:02.766Z,15.27
2022-10-02T08:05:02.707Z,15.31
2022-10-02T08:06:02.646Z,15.35
2022-10-02T08:07:02.690Z,15.27
2022-10-02T08:08:02.674Z,15.44
2022-10-02T08:09:02.639Z,15.44
2022-10-02T08:10:02.519Z,15.49
2022-10-02T08:11:02.502Z,15.44
2022-10-02T08:12:02.456Z,15.58
2022-10-02T08:13:02.427Z,15.61
2022-10-02T08:14:02.461Z,15.59
2022-10-02T08:15:02.368Z,15.72
2022-10-02T08:16:02.393Z,15.68
2022-10-02T08:17:02.304Z,15.77
2022-10-02T08:18:16.766Z,15.91
2022-10-02T08:19:02.301Z,15.90
2022-10-02T08:20:02.219Z,15.97
2022-10-02T08:21:02.178Z,16.09
2022-10-02T08:22:02.148Z,16.17
2022-10-02T08:23:02.124Z,16.31
2022-10-02T08:24:02.151Z,16.36
2022-10-02T08:25:02.059Z,16.56
2022-10-02T08:26:02.031Z,16.60
2022-10-02T08:27:02.005Z,16.81
2022-10-02T08:28:02.035Z,16.74
2022-10-02T08:29:02.016Z,16.84
2022-10-02T08:30:01.914Z,16.75
2022-10-02T08:31:01.874Z,16.91
2022-10-02T08:32:01.945Z,17.19
2022-10-02T08:33:01.828Z,17.38
2022-10-02T08:34:01.782Z,17.29
2022-10-02T08:35:01.831Z,17.30
2022-10-02T08:36:01.724Z,17.24
2022-10-02T08:37:01.708Z,17.14
2022-10-02T08:38:01.664Z,17.01
2022-10-02T08:39:01.641Z,16.86
2022-10-02T08:40:01.669Z,16.90
2022-10-02T08:41:01.629Z,17.04
2022-10-02T08:42:01.625Z,17.12
2022-10-02T08:43:01.518Z,16.99
2022-10-02T08:44:01.491Z,17.04
2022-10-02T08:45:01.469Z,17.14
2022-10-02T08:46:01.507Z,17.14
2022-10-02T08:47:02.111Z,17.06
2022-10-02T08:48:01.454Z,17.08
2022-10-02T08:49:01.346Z,17.08
2022-10-02T08:50:01.310Z,17.15
2022-10-02T08:51:01.295Z,17.23
2022-10-02T08:52:01.270Z,17.24
2022-10-02T08:53:01.234Z,17.23
2022-10-02T08:54:01.252Z,17.27
2022-10-02T08:55:01.166Z,17.39
2022-10-02T08:56:01.236Z,17.42
2022-10-02T08:57:01.149Z,17.44
2022-10-02T08:58:01.084Z,17.30
2022-10-02T08:59:01.056Z,17.23
2022-10-02T09:00:01.018Z,17.24
2022-10-02T09:01:01.068Z,17.11
2022-10-02T09:02:01.091Z,17.11
2022-10-02T09:03:00.934Z,17.16
2022-10-02T09:04:00.922Z,17.24
2022-10-02T09:05:00.883Z,17.24
2022-10-02T09:06:00.866Z,17.20
2022-10-02T09:07:00.880Z,17.16
2022-10-02T09:08:00.822Z,17.11
2022-10-02T09:09:00.786Z,17.04
2022-10-02T09:10:00.735Z,16.84
2022-10-02T09:11:00.708Z,16.84
2022-10-02T09:12:00.734Z,16.74
2022-10-02T09:13:00.655Z,16.72
2022-10-02T09:14:00.662Z,16.64
2022-10-02T09:15:00.601Z,16.71
2022-10-02T09:16:00.629Z,16.78
2022-10-02T09:17:00.596Z,16.75
2022-10-02T09:18:00.528Z,16.76
2022-10-02T09:19:00.475Z,16.76
2022-10-02T09:20:00.458Z,16.75
2022-10-02T09:21:00.416Z,16.78
2022-10-02T09:22:00.393Z,16.83
2022-10-02T09:23:00.428Z,16.83
2022-10-02T09:24:01.179Z,16.76
2022-10-02T09:25:00.297Z,16.68
2022-10-02T09:26:00.277Z,16.83
2022-10-02T09:27:00.240Z,16.78
2022-10-02T09:28:00.252Z,16.86
2022-10-02T09:29:00.251Z,16.71
2022-10-02T09:30:00.160Z,16.83
2022-10-02T09:31:00.154Z,16.74
2022-10-02T09:32:00.166Z,16.69
2022-10-02T09:33:00.077Z,16.87
2022-10-02T09:34:00.110Z,16.90
2022-10-02T09:35:00.004Z,16.93
2022-10-02T09:35:59.976Z,17.04
2022-10-02T09:36:59.958Z,17.22
2022-10-02T09:37:59.923Z,17.33
2022-10-02T09:38:59.948Z,17.45
2022-10-02T09:39:59.857Z,17.60
2022-10-02T09:40:59.828Z,17.80
2022-10-02T09:41:59.799Z,17.80
2022-10-02T09:42:59.774Z,17.89
2022-10-02T09:43:59.803Z,17.83
2022-10-02T09:45:01.857Z,17.82
2022-10-02T09:45:59.761Z,17.90
2022-10-02T09:46:59.648Z,17.95
2022-10-02T09:47:59.624Z,18.08
2022-10-02T09:48:59.599Z,18.05
2022-10-02T09:49:59.621Z,18.04
2022-10-02T09:50:59.549Z,18.00
2022-10-02T09:51:59.511Z,18.07
2022-10-02T09:52:59.474Z,17.90
2022-10-02T09:53:59.447Z,17.86
2022-10-02T09:54:59.499Z,17.56
2022-10-02T09:55:59.390Z,17.34
2022-10-02T09:56:59.365Z,17.24
2022-10-02T09:57:59.461Z,17.16
2022-10-02T09:58:59.303Z,17.06
2022-10-02T09:59:59.342Z,17.15
2022-10-02T10:00:59.364Z,16.99
2022-10-02T10:01:59.243Z,16.71
2022-10-02T10:02:59.188Z,16.75
2022-10-02T10:03:59.166Z,16.51
2022-10-02T10:05:06.154Z,16.47
2022-10-02T10:05:59.105Z,16.46
2022-10-02T10:06:59.098Z,16.39
2022-10-02T10:07:59.044Z,16.35
2022-10-02T10:08:59.751Z,16.23
2022-10-02T10:09:59.040Z,16.01
2022-10-02T10:10:59.027Z,15.95
2022-10-02T10:11:58.928Z,15.73
2022-10-02T10:12:58.900Z,15.59
2022-10-02T10:13:58.914Z,15.46
2022-10-02T10:14:58.839Z,15.46
2022-10-02T10:15:58.964Z,15.44
2022-10-02T10:16:58.839Z,15.37
2022-10-02T10:17:58.800Z,15.39
2022-10-02T10:18:58.721Z,15.37
2022-10-02T10:19:58.735Z,15.36
2022-10-02T10:20:58.658Z,15.49
2022-10-02T10:21:58.630Z,15.65
2022-10-02T10:22:58.654Z,15.65
2022-10-02T10:23:58.604Z,15.73
2022-10-02T10:24:58.540Z,15.72
2022-10-02T10:25:58.597Z,15.73
2022-10-02T10:26:58.474Z,15.83
2022-10-02T10:27:58.491Z,15.77
2022-10-02T10:28:58.415Z,15.75
2022-10-02T10:29:58.393Z,15.76
2022-10-02T10:30:58.359Z,15.73
2022-10-02T10:31:58.506Z,15.73
2022-10-02T10:32:58.296Z,15.73
2022-10-02T10:33:58.328Z,15.70
2022-10-02T10:34:58.241Z,15.73
2022-10-02T10:35:58.209Z,15.70
2022-10-02T10:36:58.249Z,15.79
2022-10-02T10:37:58.174Z,15.80
2022-10-02T10:38:58.116Z,16.01
2022-10-02T10:39:58.082Z,16.38
2022-10-02T10:40:58.059Z,16.54
2022-10-02T10:41:58.024Z,16.50
2022-10-02T10:43:08.807Z,16.66
2022-10-02T10:43:57.963Z,16.72
2022-10-02T10:44:57.932Z,16.74
2022-10-02T10:45:57.962Z,16.60
2022-10-02T10:46:57.873Z,16.61
2022-10-02T10:47:57.839Z,16.83
2022-10-02T10:48:57.878Z,17.05
2022-10-02T10:49:57.839Z,17.16
2022-10-02T10:50:57.752Z,17.39
2022-10-02T10:51:57.726Z,17.63
2022-10-02T10:52:57.691Z,17.44
2022-10-02T10:54:01.737Z,17.39
2022-10-02T10:54:57.631Z,17.09
2022-10-02T10:55:57.679Z,17.01
2022-10-02T10:56:57.583Z,16.87
2022-10-02T10:57:57.547Z,16.83
2022-10-02T10:58:57.513Z,16.97
2022-10-02T10:59:57.484Z,16.99
2022-10-02T11:00:57.477Z,17.01
2022-10-02T11:01:57.543Z,16.91
2022-10-02T11:02:57.407Z,16.89
2022-10-02T11:03:57.374Z,16.94
2022-10-02T11:04:57.404Z,16.96
2022-10-02T11:05:57.323Z,17.09
2022-10-02T11:06:57.288Z,17.06
2022-10-02T11:07:57.286Z,17.09
2022-10-02T11:08:57.218Z,16.89
2022-10-02T11:09:57.281Z,16.83
2022-10-02T11:10:57.163Z,16.87
2022-10-02T11:11:57.141Z,16.83
2022-10-02T11:12:57.103Z,16.72
2022-10-02T11:13:57.079Z,16.75
2022-10-02T11:14:57.107Z,16.83
2022-10-02T11:15:57.019Z,16.83
2022-10-02T11:16:56.993Z,16.71
2022-10-02T11:17:56.954Z,16.72
2022-10-02T11:18:56.922Z,16.71
2022-10-02T11:19:56.963Z,16.78
2022-10-02T11:20:56.869Z,16.72
2022-10-02T11:21:56.835Z,16.78
2022-10-02T11:22:56.814Z,16.84
2022-10-02T11:23:56.780Z,16.89
2022-10-02T11:24:56.754Z,17.12
2022-10-02T11:25:56.785Z,17.33
2022-10-02T11:26:56.689Z,17.57
2022-10-02T11:27:56.734Z,17.71
2022-10-02T11:28:56.634Z,17.59
2022-10-02T11:29:56.602Z,17.54
2022-10-02T11:30:56.640Z,17.57
2022-10-02T11:31:56.614Z,17.68
2022-10-02T11:32:56.515Z,17.76
2022-10-02T11:33:56.497Z,17.79
2022-10-02T11:34:56.459Z,17.94
2022-10-02T11:35:56.431Z,17.94
2022-10-02T11:36:56.459Z,18.00
2022-10-02T11:37:58.693Z,18.08
2022-10-02T11:38:56.335Z,18.08
2022-10-02T11:39:56.323Z,18.04
2022-10-02T11:40:56.284Z,17.95
2022-10-02T11:41:56.296Z,17.98
2022-10-02T11:42:56.226Z,17.90
2022-10-02T11:43:56.222Z,17.83
2022-10-02T11:44:56.780Z,17.68
2022-10-02T11:45:56.263Z,17.57
2022-10-02T11:46:56.190Z,17.48
2022-10-02T11:47:56.105Z,17.23
2022-10-02T11:48:56.060Z,17.12
2022-10-02T11:49:56.025Z,16.93
2022-10-02T11:50:56.218Z,16.83
2022-10-02T11:51:56.060Z,16.79
2022-10-02T11:52:56.084Z,16.66
2022-10-02T11:53:55.994Z,16.57
2022-10-02T11:54:58.673Z,16.47
2022-10-02T11:55:55.866Z,16.43
2022-10-02T11:56:55.880Z,16.42
2022-10-02T11:57:55.882Z,16.38
2022-10-02T11:58:55.776Z,16.29
2022-10-02T11:59:55.742Z,16.31
2022-10-02T12:00:55.715Z,16.24
2022-10-02T12:01:55.693Z,16.17
2022-10-02T12:02:55.787Z,16.16
2022-10-02T12:03:55.715Z,16.21
2022-10-02T12:04:55.672Z,16.23
2022-10-02T12:05:55.593Z,16.26
2022-10-02T12:06:55.553Z,16.31
2022-10-02T12:07:55.543Z,16.29
2022-10-02T12:08:55.557Z,16.28
2022-10-02T12:09:55.437Z,16.31
2022-10-02T12:10:55.408Z,16.46
2022-10-02T12:11:55.421Z,16.43
2022-10-02T12:12:55.356Z,16.39
2022-10-02T12:13:55.321Z,16.42
2022-10-02T12:14:55.376Z,16.32
2022-10-02T12:15:55.265Z,16.31
2022-10-02T12:16:55.280Z,16.35
2022-10-02T12:17:55.209Z,16.35
2022-10-02T12:18:55.248Z,16.28
2022-10-02T12:19:55.161Z,16.28
2022-10-02T12:20:55.134Z,16.26
2022-10-02T12:21:55.124Z,16.39
2022-10-02T12:22:55.047Z,16.46
2022-10-02T12:23:55.107Z,16.51
2022-10-02T12:24:55.143Z,16.47
2022-10-02T12:25:55.061Z,16.72
2022-10-02T12:26:54.935Z,16.79
2022-10-02T12:27:54.933Z,16.93
2022-10-02T12:28:54.908Z,16.94
2022-10-02T12:29:54.906Z,17.01
2022-10-02T12:30:54.812Z,17.16
2022-10-02T12:31:54.838Z,17.11
2022-10-02T12:32:54.753Z,17.15
2022-10-02T12:33:56.821Z,17.08
2022-10-02T12:34:54.772Z,17.11
2022-10-02T12:35:54.661Z,17.06
2022-10-02T12:36:54.675Z,17.08
2022-10-02T12:37:54.596Z,16.93
2022-10-02T12:38:54.571Z,16.96
2022-10-02T12:39:54.531Z,17.01
2022-10-02T12:40:54.555Z,17.12
2022-10-02T12:41:54.475Z,17.24
2022-10-02T12:42:54.442Z,17.22
2022-10-02T12:43:54.408Z,17.23
2022-10-02T12:44:54.395Z,17.24
2022-10-02T12:45:54.438Z,17.22
2022-10-02T12:46:54.322Z,17.22
2022-10-02T12:47:54.290Z,17.12
2022-10-02T12:48:54.263Z,17.20
2022-10-02T12:49:54.234Z,17.22
2022-10-02T12:50:54.197Z,17.31
2022-10-02T12:51:54.231Z,17.57